Time;durP1;ratioP1;P1;durP2;ratioP2;P2;SDS_P1;SDS_P2;PMS_P1;PMS_P2;Temp;Humidity;BMP_temperature;BMP_pressure;BME280_temperature;BME280_humidity;BME280_pressure;Samples;Min_cycle;Max_cycle;Signal;HPM_P1;HPM_P2
2022/08/18 00:00:41;;;;;;;14.40;8.68;;;18.20;99.90;;;;;;5094429;28;20024;-72
2022/08/18 00:03:07;;;;;;;11.02;7.47;;;18.20;99.90;;;;;;5092684;28;20357;-72
2022/08/18 00:05:33;;;;;;;12.88;8.32;;;18.20;99.90;;;;;;5094218;28;20023;-72
2022/08/18 00:07:59;;;;;;;14.52;8.30;;;18.30;99.90;;;;;;5093973;28;20024;-72
2022/08/18 00:10:26;;;;;;;11.73;6.93;;;18.20;99.90;;;;;;5093834;28;20378;-72
2022/08/18 00:12:52;;;;;;;12.15;7.72;;;18.20;99.90;;;;;;5093684;28;20027;-72
2022/08/18 00:15:19;;;;;;;13.57;6.75;;;18.30;99.90;;;;;;5092571;28;20111;-72
2022/08/18 00:17:45;;;;;;;8.70;6.70;;;18.20;99.90;;;;;;5093691;28;20485;-72
2022/08/18 00:20:15;;;;;;;10.43;7.55;;;18.20;99.90;;;;;;5094277;28;20020;-72
2022/08/18 00:22:40;;;;;;;12.35;6.53;;;18.20;99.90;;;;;;5094721;28;20115;-70
2022/08/18 00:25:08;;;;;;;10.32;6.90;;;18.20;99.90;;;;;;5094474;28;20040;-72
2022/08/18 00:27:36;;;;;;;11.25;5.97;;;18.10;99.90;;;;;;5093600;28;20028;-72
2022/08/18 00:30:04;;;;;;;12.23;6.53;;;18.10;99.90;;;;;;5093591;28;20016;-72
2022/08/18 00:32:36;;;;;;;10.73;5.97;;;18.10;99.90;;;;;;5093410;28;20055;-72
2022/08/18 00:35:12;;;;;;;9.70;5.70;;;18.10;99.90;;;;;;5093474;28;20062;-72
2022/08/18 00:37:41;;;;;;;8.38;5.25;;;18.00;99.90;;;;;;5093505;28;20032;-72
2022/08/18 00:40:09;;;;;;;12.95;6.57;;;17.90;99.90;;;;;;5093464;28;20495;-72
2022/08/18 00:42:42;;;;;;;9.35;5.88;;;17.90;99.90;;;;;;5093385;28;20081;-72
2022/08/18 00:45:13;;;;;;;8.65;5.75;;;17.90;99.90;;;;;;5093454;28;20024;-72
2022/08/18 00:47:38;;;;;;;14.25;5.97;;;17.80;99.90;;;;;;5093193;28;20020;-72
2022/08/18 00:50:05;;;;;;;7.82;5.53;;;17.70;99.90;;;;;;5093402;28;20031;-72
2022/08/18 00:52:32;;;;;;;9.32;5.68;;;17.80;99.90;;;;;;5093649;28;20492;-72
2022/08/18 00:54:59;;;;;;;11.32;5.93;;;17.80;99.90;;;;;;5092116;28;20023;-72
2022/08/18 00:57:26;;;;;;;8.48;6.40;;;17.70;99.90;;;;;;5093246;28;20032;-72
2022/08/18 01:00:09;;;;;;;11.93;6.07;;;17.70;99.90;;;;;;5093578;28;20016;-72
2022/08/18 01:02:40;;;;;;;14.63;6.20;;;17.70;99.90;;;;;;5093540;28;20533;-72
2022/08/18 01:05:12;;;;;;;13.52;7.13;;;17.60;99.90;;;;;;5093268;28;20012;-72
2022/08/18 01:07:46;;;;;;;10.75;5.70;;;17.60;99.90;;;;;;5093229;28;20469;-72
2022/08/18 01:10:17;;;;;;;9.10;5.32;;;17.60;99.90;;;;;;5093471;28;20078;-72
2022/08/18 01:12:48;;;;;;;9.07;5.55;;;17.60;99.90;;;;;;5093092;28;20031;-72
2022/08/18 01:15:17;;;;;;;10.48;5.63;;;17.40;99.90;;;;;;5091603;28;20111;-72
2022/08/18 01:23:20;;;;;;;12.30;5.80;;;17.30;99.90;;;;;;5093425;28;20032;-72
2022/08/18 01:26:00;;;;;;;10.18;5.90;;;17.30;99.90;;;;;;5091769;28;20027;-72
2022/08/18 01:28:34;;;;;;;20.40;6.00;;;17.30;99.90;;;;;;5093102;28;20027;-72
2022/08/18 01:31:01;;;;;;;10.27;5.57;;;17.30;99.90;;;;;;5093417;28;20035;-72
2022/08/18 01:33:37;;;;;;;9.63;5.40;;;17.20;99.90;;;;;;5092992;28;20077;-72
2022/08/18 01:36:07;;;;;;;9.02;4.93;;;17.20;99.90;;;;;;5092979;28;20028;-72
2022/08/18 01:38:32;;;;;;;14.40;5.90;;;17.20;99.90;;;;;;5091716;28;20051;-72
2022/08/18 01:40:59;;;;;;;8.27;6.10;;;17.30;99.90;;;;;;5093187;28;20020;-72
2022/08/18 01:43:25;;;;;;;7.22;5.70;;;17.30;99.90;;;;;;5092907;28;20047;-72
2022/08/18 01:45:51;;;;;;;9.23;5.07;;;17.40;99.90;;;;;;5092954;28;20096;-72
2022/08/18 01:48:16;;;;;;;7.82;5.63;;;17.40;99.90;;;;;;5095370;28;20062;-72
2022/08/18 01:50:44;;;;;;;15.80;6.50;;;17.40;99.90;;;;;;5096747;28;20027;-72
2022/08/18 01:53:10;;;;;;;8.90;5.28;;;17.40;99.90;;;;;;5096339;28;20100;-72
2022/08/18 01:55:39;;;;;;;9.55;5.95;;;17.30;99.90;;;;;;5096757;28;20488;-72
2022/08/18 01:58:06;;;;;;;8.10;5.05;;;17.30;99.90;;;;;;5096965;28;20107;-72
2022/08/18 02:00:32;;;;;;;9.13;5.75;;;17.30;99.90;;;;;;5096279;28;20051;-72
2022/08/18 02:03:00;;;;;;;10.80;6.00;;;17.30;99.90;;;;;;5096221;28;20449;-72
2022/08/18 02:05:42;;;;;;;7.93;5.55;;;17.20;99.90;;;;;;5096262;28;20016;-72
2022/08/18 02:08:09;;;;;;;8.68;5.82;;;17.20;99.90;;;;;;5096524;28;20100;-72
2022/08/18 02:10:35;;;;;;;9.75;6.40;;;17.20;99.90;;;;;;5094841;28;20024;-72
2022/08/18 02:13:00;;;;;;;9.00;6.03;;;17.20;99.90;;;;;;5096070;28;20054;-72
2022/08/18 02:15:27;;;;;;;13.05;6.40;;;17.20;99.90;;;;;;5095926;28;20111;-72
2022/08/18 02:17:52;;;;;;;11.43;6.25;;;17.20;99.90;;;;;;5095921;28;20075;-72
2022/08/18 02:20:19;;;;;;;8.40;5.40;;;17.10;99.90;;;;;;5095991;28;20016;-72
2022/08/18 02:22:45;;;;;;;10.32;5.35;;;17.10;99.90;;;;;;5096102;28;20036;-72
2022/08/18 02:25:12;;;;;;;7.47;5.60;;;17.10;99.90;;;;;;5096272;28;20016;-72
2022/08/18 02:27:38;;;;;;;56.33;6.05;;;17.00;99.90;;;;;;5095796;28;20028;-72
2022/08/18 02:30:07;;;;;;;8.90;5.68;;;17.00;99.90;;;;;;5095972;28;20021;-72
2022/08/18 02:32:33;;;;;;;11.63;6.47;;;17.00;99.90;;;;;;5095633;28;20024;-72
2022/08/18 02:34:58;;;;;;;8.40;5.40;;;17.00;99.90;;;;;;5095688;28;20023;-72
2022/08/18 02:37:24;;;;;;;12.15;5.90;;;17.00;99.90;;;;;;5095596;28;20028;-72
2022/08/18 02:39:49;;;;;;;10.75;6.10;;;17.00;99.90;;;;;;5095793;28;20018;-72
2022/08/18 02:42:15;;;;;;;8.20;5.80;;;16.90;99.90;;;;;;5095503;28;20024;-72
2022/08/18 02:44:41;;;;;;;11.63;5.53;;;16.90;99.90;;;;;;5095507;28;20073;-72
2022/08/18 02:47:07;;;;;;;9.60;5.63;;;16.90;99.90;;;;;;5095510;28;20476;-72
2022/08/18 02:49:35;;;;;;;11.20;5.85;;;16.90;99.90;;;;;;5095392;28;20099;-72
2022/08/18 02:52:01;;;;;;;9.57;5.35;;;16.90;99.90;;;;;;5095321;28;20490;-72
2022/08/18 02:54:27;;;;;;;7.95;5.45;;;16.90;99.90;;;;;;5095315;28;20095;-72
2022/08/18 02:56:52;;;;;;;14.10;6.03;;;16.90;99.90;;;;;;5095777;28;20024;-72
2022/08/18 02:59:26;;;;;;;7.60;5.30;;;16.90;99.90;;;;;;5094525;28;20023;-72
2022/08/18 03:01:54;;;;;;;9.40;5.82;;;16.90;99.90;;;;;;5095643;28;20024;-72
2022/08/18 03:04:25;;;;;;;14.23;6.43;;;16.90;99.90;;;;;;5095235;28;20019;-73
2022/08/18 03:06:52;;;;;;;14.40;6.15;;;16.90;99.90;;;;;;5095101;28;20362;-72
2022/08/18 03:09:18;;;;;;;10.35;6.15;;;16.90;99.90;;;;;;5094994;28;20012;-72
2022/08/18 03:11:44;;;;;;;8.52;5.18;;;16.90;99.90;;;;;;5095172;28;20101;-72
2022/08/18 03:14:11;;;;;;;8.18;5.80;;;16.90;99.90;;;;;;5093468;28;20393;-72
2022/08/18 03:16:39;;;;;;;9.68;6.10;;;16.80;99.90;;;;;;5094941;28;20020;-72
2022/08/18 03:19:05;;;;;;;52.88;7.55;;;16.80;99.90;;;;;;5095350;28;20358;-72
2022/08/18 03:21:34;;;;;;;9.73;6.32;;;16.80;99.90;;;;;;5094997;28;20020;-72
2022/08/18 03:24:00;;;;;;;8.38;5.75;;;16.80;99.90;;;;;;5094736;28;20043;-72
2022/08/18 03:26:26;;;;;;;14.07;6.45;;;16.80;99.90;;;;;;5094670;28;20028;-72
2022/08/18 03:28:53;;;;;;;13.35;6.55;;;16.80;99.90;;;;;;5094428;28;20479;-72
2022/08/18 03:31:22;;;;;;;16.50;7.03;;;16.80;99.90;;;;;;5094667;28;20024;-74
2022/08/18 03:33:48;;;;;;;12.27;6.75;;;16.70;99.90;;;;;;5094867;28;20024;-74
2022/08/18 03:36:23;;;;;;;26.88;6.97;;;16.70;99.90;;;;;;5094588;28;20365;-74
2022/08/18 03:38:50;;;;;;;19.95;7.45;;;16.70;99.90;;;;;;5094462;28;20503;-74
2022/08/18 03:41:18;;;;;;;10.07;6.20;;;16.70;99.90;;;;;;5094376;28;20020;-73
2022/08/18 03:43:43;;;;;;;21.30;6.65;;;16.70;99.90;;;;;;5094269;28;20389;-74
2022/08/18 03:46:12;;;;;;;10.95;6.40;;;16.70;99.90;;;;;;5094356;28;20020;-74
2022/08/18 03:48:40;;;;;;;14.77;6.68;;;16.60;99.90;;;;;;5094282;28;20020;-73
2022/08/18 03:51:15;;;;;;;25.10;6.70;;;16.60;99.90;;;;;;5094291;28;20020;-74
2022/08/18 03:53:41;;;;;;;14.10;6.72;;;16.60;99.90;;;;;;5094098;28;20261;-74
2022/08/18 03:56:15;;;;;;;20.65;8.75;;;16.60;99.90;;;;;;5094713;28;20028;-74
2022/08/18 03:58:44;;;;;;;23.10;8.23;;;16.60;99.90;;;;;;5092807;28;20139;-74
2022/08/18 04:01:12;;;;;;;24.42;9.20;;;16.70;99.90;;;;;;5094090;28;20101;-74
2022/08/18 04:03:38;;;;;;;15.73;9.38;;;16.70;99.90;;;;;;5093990;28;20024;-74
2022/08/18 04:06:03;;;;;;;18.13;10.38;;;16.80;99.90;;;;;;5092967;28;20385;-74
2022/08/18 04:08:29;;;;;;;20.92;10.30;;;16.80;99.90;;;;;;5094473;28;20031;-74
2022/08/18 04:10:55;;;;;;;22.63;11.63;;;16.90;99.90;;;;;;5091754;28;20027;-74
2022/08/18 04:13:21;;;;;;;26.15;12.43;;;16.90;99.90;;;;;;5093987;28;20036;-74
2022/08/18 04:15:46;;;;;;;23.27;10.85;;;16.90;99.90;;;;;;5092368;28;20447;-74
2022/08/18 04:18:12;;;;;;;25.98;12.25;;;17.00;99.90;;;;;;5093724;28;20032;-74
2022/08/18 04:20:39;;;;;;;26.75;11.88;;;17.00;99.90;;;;;;5093699;28;20016;-73
2022/08/18 04:23:04;;;;;;;19.23;11.70;;;17.00;99.90;;;;;;5093608;28;20008;-73
2022/08/18 04:25:31;;;;;;;21.73;12.75;;;17.00;99.90;;;;;;5092427;28;20024;-74
2022/08/18 04:27:59;;;;;;;27.50;12.93;;;17.00;99.90;;;;;;5093613;28;20027;-73
2022/08/18 04:30:26;;;;;;;27.60;13.10;;;17.00;99.90;;;;;;5094159;28;20024;-74
2022/08/18 04:32:51;;;;;;;19.83;11.93;;;17.00;99.90;;;;;;5093596;28;20492;-74
2022/08/18 04:35:17;;;;;;;37.67;12.68;;;17.00;99.90;;;;;;5093620;28;20016;-74
2022/08/18 04:37:42;;;;;;;91.10;12.02;;;17.00;99.90;;;;;;5092140;28;20472;-74
2022/08/18 04:40:09;;;;;;;61.50;12.32;;;16.90;99.90;;;;;;5093442;28;20088;-74
2022/08/18 04:42:35;;;;;;;25.25;12.20;;;16.90;99.90;;;;;;5093699;28;20476;-74
2022/08/18 04:45:01;;;;;;;45.25;12.07;;;16.80;99.90;;;;;;5092133;28;20112;-74
2022/08/18 04:47:26;;;;;;;44.00;12.32;;;16.80;99.90;;;;;;5092185;28;20031;-74
2022/08/18 04:49:52;;;;;;;81.28;13.70;;;16.80;99.90;;;;;;5093691;28;20031;-74
2022/08/18 04:55:03;;;;;;;21.08;12.07;;;16.80;99.90;;;;;;5093403;28;20058;-73
2022/08/18 04:57:30;;;;;;;26.38;13.52;;;16.80;99.90;;;;;;5093148;28;20073;-74
2022/08/18 04:59:57;;;;;;;23.67;11.95;;;16.80;99.90;;;;;;5093323;28;20046;-74
2022/08/18 05:02:22;;;;;;;24.17;13.20;;;16.80;99.90;;;;;;5093484;28;20021;-74
2022/08/18 05:04:48;;;;;;;22.75;12.75;;;16.80;99.90;;;;;;5093237;28;20097;-73
2022/08/18 05:07:17;;;;;;;20.95;12.18;;;16.80;99.90;;;;;;5093195;28;20051;-74
2022/08/18 05:09:43;;;;;;;23.15;13.38;;;16.70;99.90;;;;;;5093195;28;20028;-74
2022/08/18 05:12:12;;;;;;;27.77;13.63;;;16.80;99.90;;;;;;5093240;28;20491;-74
2022/08/18 05:14:43;;;;;;;29.10;13.98;;;16.80;99.90;;;;;;5091754;28;20089;-72
2022/08/18 05:17:09;;;;;;;33.65;13.88;;;16.90;99.90;;;;;;5091747;28;20465;-72
2022/08/18 05:19:35;;;;;;;29.63;12.82;;;17.00;99.90;;;;;;5093402;28;20020;-72
2022/08/18 05:22:01;;;;;;;26.33;13.60;;;17.10;99.90;;;;;;5093791;28;20389;-72
2022/08/18 05:24:29;;;;;;;22.83;12.45;;;17.00;99.90;;;;;;5095814;28;20153;-72
2022/08/18 05:26:55;;;;;;;73.75;12.75;;;17.10;99.90;;;;;;5095800;28;20020;-72
2022/08/18 05:29:21;;;;;;;18.83;11.18;;;17.20;99.90;;;;;;5096934;28;20020;-72
2022/08/18 05:31:50;;;;;;;21.33;11.52;;;17.10;99.90;;;;;;5097101;28;20418;-72
2022/08/18 05:34:18;;;;;;;20.05;11.15;;;17.20;99.90;;;;;;5095672;28;20089;-72
2022/08/18 05:36:50;;;;;;;20.42;11.13;;;17.20;99.90;;;;;;5096837;28;20462;-72
2022/08/18 05:39:28;;;;;;;21.08;11.45;;;17.20;99.90;;;;;;5096770;28;20099;-72
2022/08/18 05:42:21;;;;;;;21.63;11.73;;;17.20;99.90;;;;;;5096714;28;20099;-72
2022/08/18 05:44:49;;;;;;;21.90;10.75;;;17.20;99.90;;;;;;5093374;28;20468;-72
2022/08/18 05:47:30;;;;;;;30.05;11.43;;;17.30;99.90;;;;;;5095361;28;20055;-72
2022/08/18 05:50:02;;;;;;;22.98;11.95;;;17.40;99.90;;;;;;5097111;28;20106;-72
2022/08/18 05:52:37;;;;;;;15.45;9.20;;;17.50;99.90;;;;;;5096423;28;20020;-72
2022/08/18 05:58:07;;;;;;;20.58;11.30;;;18.00;99.90;;;;;;5096528;28;20080;-72
2022/08/18 06:00:34;;;;;;;15.55;9.77;;;18.20;99.90;;;;;;5096339;28;20493;-72
2022/08/18 06:03:03;;;;;;;20.10;10.55;;;18.30;99.90;;;;;;5096168;28;20496;-72
2022/08/18 06:05:36;;;;;;;18.73;10.85;;;18.60;99.90;;;;;;5096352;28;20031;-72
2022/08/18 06:08:11;;;;;;;11.88;8.57;;;18.70;99.90;;;;;;5096257;28;20023;-72
2022/08/18 06:10:41;;;;;;;14.20;8.63;;;18.80;99.90;;;;;;5096124;28;20360;-72
2022/08/18 06:13:08;;;;;;;12.95;8.85;;;19.00;99.90;;;;;;5096058;28;20023;-72
2022/08/18 06:15:52;;;;;;;13.55;8.02;;;19.10;99.90;;;;;;5094634;28;20039;-72
2022/08/18 06:18:18;;;;;;;12.68;8.27;;;19.20;99.90;;;;;;5094679;28;20032;-72
2022/08/18 06:21:02;;;;;;;14.55;7.65;;;19.30;99.90;;;;;;5094696;28;20020;-72
2022/08/18 06:23:34;;;;;;;14.68;8.98;;;19.40;99.90;;;;;;5095824;28;20031;-72
2022/08/18 06:26:20;;;;;;;11.55;7.43;;;19.50;99.90;;;;;;5096415;28;20032;-72
2022/08/18 06:29:05;;;;;;;18.55;8.32;;;19.60;99.90;;;;;;5096421;28;20062;-72
2022/08/18 06:31:55;;;;;;;9.80;6.72;;;19.70;99.90;;;;;;5095699;28;20028;-72
2022/08/18 06:34:39;;;;;;;11.73;6.45;;;19.90;99.90;;;;;;5093304;28;20032;-72
2022/08/18 06:37:07;;;;;;;11.57;7.35;;;20.00;99.90;;;;;;5096199;28;20021;-72
2022/08/18 06:39:44;;;;;;;12.60;6.97;;;20.20;99.90;;;;;;5095613;28;20020;-72
2022/08/18 06:42:10;;;;;;;11.73;5.97;;;20.20;99.90;;;;;;5094199;28;20055;-72
2022/08/18 06:44:47;;;;;;;9.57;6.30;;;20.30;99.90;;;;;;5094561;28;20024;-72
2022/08/18 06:47:14;;;;;;;15.23;7.28;;;20.30;99.90;;;;;;5095701;28;20044;-72
2022/08/18 06:50:04;;;;;;;12.52;6.35;;;20.50;99.90;;;;;;5095349;28;20023;-72
2022/08/18 06:52:34;;;;;;;10.93;5.80;;;20.50;99.90;;;;;;5095320;28;20016;-72
2022/08/18 06:55:05;;;;;;;14.02;7.00;;;20.60;99.90;;;;;;5096038;28;20107;-72
2022/08/18 06:57:34;;;;;;;8.05;5.55;;;20.50;99.90;;;;;;5093891;28;20024;-72
2022/08/18 07:00:03;;;;;;;9.38;5.70;;;20.60;99.90;;;;;;5095231;28;20035;-72
2022/08/18 07:02:56;;;;;;;11.18;6.40;;;20.60;99.90;;;;;;5095115;28;20107;-72
2022/08/18 07:05:28;;;;;;;8.38;6.00;;;20.70;99.90;;;;;;5095150;28;20445;-73
2022/08/18 07:08:19;;;;;;;8.93;5.30;;;20.80;99.90;;;;;;5095145;28;20054;-72
2022/08/18 07:10:50;;;;;;;6.57;5.32;;;20.80;99.90;;;;;;5095503;28;20035;-72
2022/08/18 07:13:21;;;;;;;15.23;4.82;;;20.90;99.90;;;;;;5093598;28;20437;-73
2022/08/18 07:15:48;;;;;;;7.82;4.95;;;21.10;99.90;;;;;;5104261;22;20496;-72
2022/08/18 07:18:21;;;;;;;8.38;4.70;;;21.20;99.90;;;;;;5097093;28;20556;-72
2022/08/18 07:20:53;;;;;;;8.98;5.55;;;21.30;99.90;;;;;;5097065;28;20032;-72
2022/08/18 07:23:39;;;;;;;6.47;4.63;;;21.60;99.90;;;;;;5078447;28;20024;-72
2022/08/18 07:26:16;;;;;;;4.68;3.53;;;21.70;99.90;;;;;;5097235;28;20024;-72
2022/08/18 07:28:45;;;;;;;5.63;3.47;;;21.90;99.90;;;;;;5096875;28;20031;-72
2022/08/18 07:31:13;;;;;;;8.15;3.45;;;22.00;99.90;;;;;;5078417;28;20040;-72
2022/08/18 07:33:40;;;;;;;;;;;22.00;99.90;;;;;;5079177;28;20055;-72
2022/08/18 07:36:09;;;;;;;5.63;3.38;;;22.20;99.90;;;;;;5096375;28;19904;-72
2022/08/18 07:39:03;;;;;;;7.35;3.40;;;22.30;99.90;;;;;;5078269;28;20472;-72
2022/08/18 07:41:47;;;;;;;6.50;3.45;;;22.30;99.90;;;;;;5072769;28;20369;-73
2022/08/18 07:44:23;;;;;;;2.17;1.80;;;22.30;99.90;;;;;;5078756;28;20121;-72
2022/08/18 07:47:18;;;;;;;4.38;2.33;;;22.20;99.90;;;;;;5078159;28;20020;-72
2022/08/18 07:49:46;;;;;;;5.40;1.77;;;22.20;99.90;;;;;;5079082;28;20074;-72
2022/08/18 07:52:20;;;;;;;1.67;1.50;;;22.20;99.90;;;;;;5078122;28;20102;-72
2022/08/18 07:55:04;;;;;;;5.78;1.40;;;24.60;99.90;;;;;;5095992;28;20027;-72
2022/08/18 07:57:36;;;;;;;4.70;1.70;;;22.40;99.90;;;;;;5096225;28;20557;-72
2022/08/18 08:00:17;;;;;;;2.17;1.02;;;22.60;99.90;;;;;;5096768;28;20125;-72
2022/08/18 08:03:11;;;;;;;2.42;1.23;;;22.60;99.90;;;;;;5096115;28;20020;-72
2022/08/18 08:05:39;;;;;;;2.50;1.23;;;22.60;99.90;;;;;;5070831;28;20032;-72
2022/08/18 08:08:17;;;;;;;1.38;1.27;;;23.10;99.90;;;;;;5096801;28;20057;-72
2022/08/18 08:11:08;;;;;;;2.28;0.80;;;22.90;99.90;;;;;;5078854;28;20076;-72
2022/08/18 08:13:52;;;;;;;1.33;0.90;;;22.70;99.90;;;;;;5078565;28;20030;-72
2022/08/18 08:16:36;;;;;;;0.77;0.77;;;22.80;99.90;;;;;;5096471;28;20027;-72
2022/08/18 08:19:10;;;;;;;1.70;0.65;;;22.80;99.90;;;;;;5078350;28;20024;-73
2022/08/18 08:21:54;;;;;;;2.55;0.95;;;22.90;99.90;;;;;;5096913;28;20032;-73
2022/08/18 08:24:45;;;;;;;2.22;0.57;;;23.30;99.90;;;;;;5078968;28;20028;-72
2022/08/18 08:27:25;;;;;;;1.63;0.98;;;23.60;99.90;;;;;;5096793;28;20023;-72
2022/08/18 08:30:11;;;;;;;3.47;0.80;;;23.80;99.90;;;;;;5096339;28;20031;-72
2022/08/18 08:32:46;;;;;;;3.53;1.13;;;23.70;99.90;;;;;;5078086;28;20031;-72
2022/08/18 08:35:24;;;;;;;2.88;1.30;;;23.60;99.90;;;;;;5078351;28;20025;-72
2022/08/18 08:38:01;;;;;;;2.83;0.82;;;23.40;99.90;;;;;;5078001;28;20103;-72
2022/08/18 08:40:47;;;;;;;2.40;0.88;;;23.10;99.90;;;;;;5095862;28;20020;-72
2022/08/18 08:43:18;;;;;;;2.38;0.50;;;22.90;99.90;;;;;;5095803;28;20019;-72
2022/08/18 08:46:02;;;;;;;0.77;0.50;;;22.50;99.90;;;;;;5077702;28;20032;-72
2022/08/18 08:48:33;;;;;;;4.15;1.77;;;23.60;99.90;;;;;;5095954;28;20514;-72
2022/08/18 08:51:17;;;;;;;4.95;1.10;;;22.20;99.90;;;;;;5095957;28;20074;-72
2022/08/18 08:53:48;;;;;;;1.77;1.05;;;22.30;99.90;;;;;;5078012;28;20036;-72
2022/08/18 08:56:16;;;;;;;2.38;0.95;;;22.50;99.90;;;;;;5095831;28;20099;-72
2022/08/18 08:58:51;;;;;;;1.43;0.80;;;24.90;99.90;;;;;;5081640;28;20027;-73
2022/08/18 09:01:38;;;;;;;0.60;0.50;;;22.90;99.90;;;;;;5081871;28;20055;-72
2022/08/18 09:04:29;;;;;;;1.63;0.77;;;23.10;99.90;;;;;;5082032;28;20027;-72
2022/08/18 09:07:31;;;;;;;2.53;0.50;;;23.40;99.90;;;;;;5081817;28;20262;-73
2022/08/18 09:10:27;;;;;;;0.77;0.13;;;23.90;99.90;;;;;;5081471;28;20036;-73
2022/08/18 09:13:10;;;;;;;0.20;0.10;;;24.30;99.90;;;;;;5099901;28;20028;-73
2022/08/18 09:16:12;;;;;;;2.15;0.77;;;24.50;99.90;;;;;;5099136;28;20043;-73
2022/08/18 09:18:43;;;;;;;1.60;0.40;;;24.60;99.90;;;;;;5081838;28;20137;-73
2022/08/18 09:21:34;;;;;;;2.63;0.40;;;24.70;99.90;;;;;;5080912;28;20095;-73
2022/08/18 09:24:24;;;;;;;1.75;0.40;;;24.80;99.90;;;;;;5099512;28;20020;-73
2022/08/18 09:27:13;;;;;;;0.30;0.10;;;25.20;99.90;;;;;;5071040;28;20055;-73
2022/08/18 09:29:56;;;;;;;1.17;0.20;;;25.30;99.90;;;;;;5099336;28;20032;-73
2022/08/18 09:32:21;;;;;;;1.05;0.22;;;25.40;99.90;;;;;;5099604;28;20047;-73
2022/08/18 09:35:21;;;;;;;1.77;0.50;;;25.30;99.90;;;;;;5099027;28;20029;-73
2022/08/18 09:44:11;;;;;;;0.80;0.00;;;25.50;99.90;;;;;;5099744;28;20042;-73
2022/08/18 09:46:43;;;;;;;0.75;0.10;;;25.30;99.90;;;;;;5080623;28;20020;-73
2022/08/18 09:49:23;;;;;;;1.23;0.10;;;25.20;99.90;;;;;;5081129;28;20107;-73
2022/08/18 09:52:20;;;;;;;0.60;0.30;;;25.10;99.90;;;;;;5080729;28;20389;-73
2022/08/18 09:54:55;;;;;;;0.30;0.30;;;24.90;99.90;;;;;;5080335;28;20106;-73
2022/08/18 09:57:30;;;;;;;3.90;0.30;;;24.60;99.90;;;;;;5098539;28;20480;-73
2022/08/18 10:00:13;;;;;;;2.50;0.60;;;24.20;99.90;;;;;;5096275;28;20020;-75
2022/08/18 10:02:40;;;;;;;1.95;0.30;;;24.10;99.90;;;;;;5096526;28;20433;-75
2022/08/18 10:05:18;;;;;;;0.65;0.28;;;24.30;99.90;;;;;;5078098;28;20020;-73
2022/08/18 10:08:02;;;;;;;0.47;0.20;;;24.40;99.90;;;;;;5096281;28;20099;-73
2022/08/18 10:11:16;;;;;;;1.40;0.20;;;24.50;99.90;;;;;;5078072;28;20405;-73
2022/08/18 10:13:47;;;;;;;0.43;0.20;;;24.80;99.90;;;;;;5061665;28;20064;-73
2022/08/18 10:16:46;;;;;;;2.25;0.63;;;25.20;99.90;;;;;;5095980;28;20081;-73
2022/08/18 10:19:33;;;;;;;1.42;0.20;;;25.50;99.90;;;;;;5096363;28;20381;-73
2022/08/18 10:21:58;;;;;;;1.58;0.35;;;25.70;99.90;;;;;;5077742;28;20051;-73
2022/08/18 10:24:39;;;;;;;3.70;0.57;;;26.00;99.90;;;;;;5095880;28;20052;-73
2022/08/18 10:27:11;;;;;;;0.98;0.32;;;26.00;99.90;;;;;;5096485;28;20020;-73
2022/08/18 10:29:40;;;;;;;0.95;0.10;;;25.80;99.90;;;;;;5077753;28;20031;-73
2022/08/18 10:32:09;;;;;;;1.00;0.30;;;25.80;99.90;;;;;;5095732;28;20028;-73
2022/08/18 10:34:37;;;;;;;;;;;25.70;99.90;;;;;;5096190;28;20055;-74
2022/08/18 10:37:17;;;;;;;0.52;0.40;;;25.40;99.90;;;;;;5095644;28;19911;-74
2022/08/18 10:39:50;;;;;;;1.45;0.38;;;25.10;99.90;;;;;;5090480;28;20094;-74
2022/08/18 10:42:41;;;;;;;1.00;0.20;;;24.80;99.90;;;;;;5057318;28;20019;-74
2022/08/18 10:45:29;;;;;;;1.50;0.30;;;24.60;99.90;;;;;;5078574;28;20079;-74
2022/08/18 10:48:03;;;;;;;3.63;1.13;;;24.80;99.90;;;;;;5095876;28;20073;-74
2022/08/18 10:50:47;;;;;;;0.98;0.10;;;25.00;99.90;;;;;;5095600;28;20081;-74
2022/08/18 10:53:44;;;;;;;2.75;0.30;;;25.50;99.90;;;;;;5060525;28;20028;-74
2022/08/18 10:56:10;;;;;;;0.47;0.20;;;26.10;99.90;;;;;;5077038;28;20035;-74
2022/08/18 10:58:56;;;;;;;1.98;0.43;;;26.30;99.90;;;;;;5095203;28;20109;-74
2022/08/18 11:01:31;;;;;;;1.20;0.50;;;26.20;99.90;;;;;;5095246;28;20039;-74
2022/08/18 11:04:01;;;;;;;2.60;0.30;;;26.20;99.90;;;;;;5095772;28;20028;-74
2022/08/18 11:06:28;;;;;;;1.95;0.20;;;26.10;99.90;;;;;;5095085;28;20020;-74
2022/08/18 11:09:00;;;;;;;4.45;0.30;;;26.30;99.90;;;;;;5095113;28;20028;-73
2022/08/18 11:11:42;;;;;;;1.15;0.13;;;26.60;99.90;;;;;;5076913;28;20374;-73
2022/08/18 11:14:32;;;;;;;0.95;0.20;;;27.10;99.90;;;;;;5076751;28;20020;-73
2022/08/18 11:17:23;;;;;;;1.00;0.10;;;27.40;99.90;;;;;;5094802;28;20490;-74
2022/08/18 11:19:50;;;;;;;1.85;0.10;;;27.20;99.90;;;;;;5094280;28;20035;-73
2022/08/18 11:22:20;;;;;;;1.75;0.10;;;26.90;99.90;;;;;;5076485;28;20170;-73
2022/08/18 11:24:46;;;;;;;0.15;0.10;;;26.60;99.90;;;;;;5095256;28;20028;-74
2022/08/18 11:27:27;;;;;;;1.38;0.10;;;26.50;99.90;;;;;;5076478;28;20031;-73
2022/08/18 11:29:53;;;;;;;0.43;0.10;;;26.40;99.90;;;;;;5095229;28;20026;-73
2022/08/18 11:32:37;;;;;;;0.93;0.00;;;26.30;99.90;;;;;;5094198;28;20020;-73
2022/08/18 11:35:15;;;;;;;0.57;0.10;;;26.20;99.90;;;;;;5094599;28;20020;-73
2022/08/18 11:37:40;;;;;;;0.28;0.00;;;26.10;99.90;;;;;;5094419;28;20026;-73
2022/08/18 11:40:34;;;;;;;0.40;0.20;;;26.50;99.90;;;;;;5094292;28;20022;-74
2022/08/18 11:43:23;;;;;;;1.10;0.15;;;27.00;99.90;;;;;;5084183;28;20032;-73
2022/08/18 11:45:56;;;;;;;0.20;0.00;;;27.50;99.90;;;;;;5093623;28;20024;-74
2022/08/18 11:48:34;;;;;;;0.50;0.10;;;28.10;99.90;;;;;;5094003;28;20024;-74
2022/08/18 11:51:07;;;;;;;1.92;0.00;;;28.10;99.90;;;;;;5076148;28;20036;-74
2022/08/18 11:53:48;;;;;;;0.08;0.00;;;28.10;99.90;;;;;;5093412;28;20054;-74
2022/08/18 11:56:19;;;;;;;0.50;0.30;;;28.10;99.90;;;;;;5076274;28;20027;-74
2022/08/18 11:58:58;;;;;;;0.10;0.00;;;28.50;99.90;;;;;;5094108;28;20028;-74
2022/08/18 12:01:30;;;;;;;0.55;0.00;;;28.90;99.90;;;;;;5094458;28;20069;-73
2022/08/18 12:04:17;;;;;;;0.00;0.00;;;29.30;99.90;;;;;;5094014;28;20016;-74
2022/08/18 12:06:59;;;;;;;1.23;0.30;;;29.60;99.90;;;;;;5062031;28;20044;-74
2022/08/18 12:09:45;;;;;;;0.85;0.20;;;29.80;99.00;;;;;;5075846;28;20024;-74
2022/08/18 12:12:32;;;;;;;0.10;0.10;;;29.50;97.70;;;;;;5093856;28;20081;-74
2022/08/18 12:14:59;;;;;;;0.43;0.10;;;29.20;98.90;;;;;;5093753;28;20036;-74
2022/08/18 12:17:27;;;;;;;0.10;0.00;;;28.90;99.50;;;;;;5093596;28;20021;-74
2022/08/18 12:19:53;;;;;;;1.70;0.00;;;28.50;99.90;;;;;;5093810;28;20107;-74
2022/08/18 12:22:24;;;;;;;0.73;0.00;;;28.00;99.70;;;;;;5093656;28;20107;-74
2022/08/18 12:24:50;;;;;;;0.65;0.10;;;27.70;99.80;;;;;;5093524;28;20024;-74
2022/08/18 12:27:19;;;;;;;0.80;0.10;;;27.40;99.90;;;;;;5075525;28;20013;-74
2022/08/18 12:29:45;;;;;;;0.75;0.10;;;27.00;99.90;;;;;;5093533;28;20024;-74
2022/08/18 12:32:11;;;;;;;0.68;0.13;;;26.70;99.90;;;;;;5092962;28;20032;-74
2022/08/18 12:34:37;;;;;;;0.57;0.10;;;26.50;99.90;;;;;;5075428;28;20047;-77
2022/08/18 12:37:07;;;;;;;1.00;0.00;;;26.60;99.90;;;;;;5093783;28;20016;-74
2022/08/18 12:39:32;;;;;;;0.60;0.00;;;27.30;99.90;;;;;;5075315;28;20046;-74
2022/08/18 12:41:58;;;;;;;0.30;0.00;;;27.80;99.90;;;;;;5075377;28;20032;-74
2022/08/18 12:44:24;;;;;;;0.00;0.00;;;27.70;99.90;;;;;;5093539;28;20017;-74
2022/08/18 12:46:50;;;;;;;0.75;0.00;;;27.50;99.90;;;;;;5094049;28;20031;-74
2022/08/18 12:49:18;;;;;;;0.20;0.17;;;27.10;99.90;;;;;;5093398;28;20079;-74
2022/08/18 12:51:46;;;;;;;0.20;0.00;;;26.80;99.90;;;;;;5093892;28;20020;-74
2022/08/18 12:54:12;;;;;;;1.38;0.30;;;26.50;99.90;;;;;;5075334;28;20052;-74
2022/08/18 12:56:39;;;;;;;1.98;0.10;;;26.20;99.90;;;;;;5093394;28;20078;-75
2022/08/18 12:59:07;;;;;;;1.48;0.00;;;26.00;99.90;;;;;;5093294;28;20024;-73
2022/08/18 13:01:34;;;;;;;0.40;0.00;;;26.00;99.90;;;;;;5075306;28;20027;-74
2022/08/18 13:04:00;;;;;;;0.38;0.00;;;25.90;99.90;;;;;;5093283;28;20024;-73
2022/08/18 13:06:26;;;;;;;1.48;0.20;;;25.80;99.90;;;;;;5093242;28;20047;-73
2022/08/18 13:08:54;;;;;;;3.13;0.00;;;25.80;99.90;;;;;;5093244;28;20504;-74
2022/08/18 13:11:21;;;;;;;3.15;0.65;;;25.90;99.90;;;;;;5093997;28;20145;-73
2022/08/18 13:13:47;;;;;;;0.93;0.15;;;25.90;99.90;;;;;;5092989;28;20039;-74
2022/08/18 13:16:13;;;;;;;1.42;0.00;;;26.00;99.90;;;;;;5093088;28;20032;-74
2022/08/18 13:18:43;;;;;;;0.43;0.00;;;26.00;99.90;;;;;;5093618;28;20109;-74
2022/08/18 13:21:13;;;;;;;4.68;0.47;;;26.10;99.90;;;;;;5093244;28;20016;-74
2022/08/18 13:23:39;;;;;;;0.75;0.00;;;26.00;99.90;;;;;;5094025;28;20118;-74
2022/08/18 13:26:08;;;;;;;0.80;0.15;;;26.00;99.90;;;;;;5093128;28;20044;-74
2022/08/18 13:28:35;;;;;;;2.50;0.43;;;25.80;99.90;;;;;;5093058;28;20024;-74